createdAt,value
2017-12-22T00:02:11.224Z,13.80
2017-12-22T00:04:39.428Z,12.63
2017-12-22T00:07:07.610Z,11.13
2017-12-22T00:09:35.788Z,10.60
2017-12-22T00:12:03.964Z,10.20
2017-12-22T00:14:32.139Z,11.07
2017-12-22T00:17:00.320Z,9.87
2017-12-22T00:19:28.487Z,9.13
2017-12-22T00:21:56.651Z,10.13
2017-12-22T00:24:24.811Z,10.70
2017-12-22T00:26:53.022Z,11.57
2017-12-22T00:29:21.185Z,11.50
2017-12-22T00:31:49.352Z,11.97
2017-12-22T00:34:17.512Z,12.63
2017-12-22T00:36:45.684Z,12.93
2017-12-22T00:39:13.843Z,11.97
2017-12-22T00:41:42.030Z,12.53
2017-12-22T00:44:10.286Z,11.37
2017-12-22T00:46:38.458Z,12.07
2017-12-22T00:49:07.389Z,11.37
2017-12-22T00:51:35.598Z,11.33
2017-12-22T00:54:03.806Z,11.90
2017-12-22T00:56:31.983Z,11.97
2017-12-22T00:59:00.151Z,11.83
2017-12-22T01:01:28.321Z,11.57
2017-12-22T01:03:57.322Z,13.10
2017-12-22T01:06:25.447Z,11.03
2017-12-22T01:08:53.610Z,10.60
2017-12-22T01:11:22.538Z,10.30
2017-12-22T01:13:51.475Z,7.33
2017-12-22T01:19:22.128Z,7.07
2017-12-22T01:21:50.286Z,6.23
2017-12-22T01:24:18.453Z,5.93
2017-12-22T01:26:46.620Z,7.20
2017-12-22T01:29:15.592Z,5.30
2017-12-22T01:31:43.757Z,5.83
2017-12-22T01:34:11.918Z,5.00
2017-12-22T01:36:40.083Z,4.90
2017-12-22T01:39:08.286Z,5.50
2017-12-22T01:41:36.454Z,4.57
2017-12-22T01:44:04.609Z,3.70
2017-12-22T01:46:32.790Z,4.03
2017-12-22T01:49:00.994Z,3.80
2017-12-22T01:51:29.918Z,3.17
2017-12-22T01:53:58.077Z,3.60
2017-12-22T01:56:27.014Z,5.57
2017-12-22T01:58:55.171Z,7.60
2017-12-22T02:01:23.330Z,7.70
2017-12-22T02:03:51.538Z,7.50
2017-12-22T02:06:19.703Z,8.23
2017-12-22T02:08:47.871Z,8.33
2017-12-22T02:11:16.044Z,8.97
2017-12-22T02:13:44.218Z,8.10
2017-12-22T02:16:13.073Z,9.30
2017-12-22T02:18:42.039Z,8.90
2017-12-22T02:21:10.206Z,8.23
2017-12-22T02:23:38.370Z,8.53
2017-12-22T02:26:06.582Z,9.20
2017-12-22T02:28:35.513Z,7.80
2017-12-22T02:31:03.738Z,7.23
2017-12-22T02:33:31.900Z,8.00
2017-12-22T02:36:00.055Z,8.30
2017-12-22T02:38:28.249Z,7.82
2017-12-22T02:40:56.404Z,7.87
2017-12-22T02:43:24.567Z,7.20
2017-12-22T02:45:52.742Z,6.57
2017-12-22T02:48:20.902Z,8.53
2017-12-22T02:50:50.297Z,8.10
2017-12-22T02:53:18.467Z,7.97
2017-12-22T02:55:46.631Z,8.70
2017-12-22T02:58:15.568Z,8.60
2017-12-22T03:00:43.730Z,7.90
2017-12-22T03:03:11.900Z,7.40
2017-12-22T03:05:40.051Z,6.57
2017-12-22T03:08:08.982Z,7.60
2017-12-22T03:10:37.134Z,7.57
2017-12-22T03:13:05.319Z,7.40
2017-12-22T03:15:33.490Z,7.13
2017-12-22T03:18:01.712Z,9.70
2017-12-22T03:20:29.870Z,6.33
2017-12-22T03:22:58.038Z,6.03
2017-12-22T03:25:26.218Z,6.00
2017-12-22T03:27:54.382Z,6.37
2017-12-22T03:30:22.546Z,5.83
2017-12-22T03:32:50.711Z,6.23
2017-12-22T03:35:18.866Z,6.60
2017-12-22T03:37:47.032Z,5.57
2017-12-22T03:40:15.958Z,5.30
2017-12-22T03:42:44.114Z,5.80
2017-12-22T03:45:12.326Z,5.30
2017-12-22T03:47:40.483Z,6.70
2017-12-22T03:50:08.644Z,7.80
2017-12-22T03:52:36.815Z,6.20
2017-12-22T03:55:04.983Z,6.47
2017-12-22T03:57:33.141Z,5.87
2017-12-22T04:00:02.122Z,5.68
2017-12-22T04:02:31.063Z,6.10
2017-12-22T04:04:59.222Z,5.73
2017-12-22T04:07:27.391Z,5.77
2017-12-22T04:09:55.548Z,5.70
2017-12-22T04:12:24.478Z,6.00
2017-12-22T04:14:52.643Z,6.37
2017-12-22T04:17:20.803Z,6.87
2017-12-22T04:19:48.975Z,6.70
2017-12-22T04:22:17.182Z,5.97
2017-12-22T04:24:45.334Z,6.27
2017-12-22T04:27:13.550Z,7.90
2017-12-22T04:29:41.729Z,8.07
2017-12-22T04:32:09.891Z,7.70
2017-12-22T04:34:38.057Z,7.37
2017-12-22T04:37:06.230Z,8.23
2017-12-22T04:39:34.396Z,8.80
2017-12-22T04:42:02.586Z,7.50
2017-12-22T04:44:30.762Z,7.40
2017-12-22T04:46:58.972Z,9.03
2017-12-22T04:49:27.142Z,10.10
2017-12-22T04:51:55.306Z,6.90
2017-12-22T04:54:23.497Z,7.83
2017-12-22T04:56:52.432Z,7.13
2017-12-22T04:59:20.592Z,7.50
2017-12-22T05:01:48.794Z,6.70
2017-12-22T05:04:16.959Z,6.03
2017-12-22T05:06:45.118Z,6.03
2017-12-22T05:09:13.333Z,6.90
2017-12-22T05:11:41.497Z,6.77
2017-12-22T05:14:09.658Z,6.00
2017-12-22T05:16:37.817Z,6.30
2017-12-22T05:19:06.027Z,6.80
2017-12-22T05:21:34.191Z,6.30
2017-12-22T05:24:02.372Z,7.20
2017-12-22T05:26:30.547Z,9.87
2017-12-22T05:28:58.741Z,13.50
2017-12-22T05:31:26.903Z,20.10
2017-12-22T05:33:55.062Z,22.60
2017-12-22T05:36:23.262Z,18.90
2017-12-22T05:38:51.438Z,18.13
2017-12-22T05:41:19.602Z,14.40
2017-12-22T05:43:47.767Z,13.27
2017-12-22T05:46:15.938Z,11.60
2017-12-22T05:48:44.866Z,13.37
2017-12-22T05:51:13.039Z,12.02
2017-12-22T05:53:41.215Z,10.48
2017-12-22T05:56:09.415Z,9.87
2017-12-22T05:58:38.351Z,9.40
2017-12-22T06:01:06.509Z,8.87
2017-12-22T06:03:34.694Z,6.87
2017-12-22T06:06:02.860Z,6.80
2017-12-22T06:08:31.017Z,9.50
2017-12-22T06:10:59.179Z,9.67
2017-12-22T06:13:27.342Z,9.55
2017-12-22T06:15:56.316Z,9.37
2017-12-22T06:18:24.486Z,9.50
2017-12-22T06:20:52.647Z,11.83
2017-12-22T06:23:20.868Z,11.63
2017-12-22T06:25:49.790Z,9.73
2017-12-22T06:28:18.002Z,9.57
2017-12-22T06:30:46.158Z,9.20
2017-12-22T06:33:15.109Z,9.87
2017-12-22T06:35:43.290Z,10.07
2017-12-22T06:38:11.456Z,9.90
2017-12-22T06:40:39.670Z,8.73
2017-12-22T06:43:07.891Z,9.25
2017-12-22T06:45:36.827Z,10.03
2017-12-22T06:48:04.998Z,8.40
2017-12-22T06:50:33.162Z,8.80
2017-12-22T06:53:01.318Z,11.50
2017-12-22T06:55:29.487Z,11.43
2017-12-22T06:57:58.415Z,9.67
2017-12-22T07:00:26.570Z,10.07
2017-12-22T07:02:54.722Z,9.73
2017-12-22T07:05:23.654Z,11.00
2017-12-22T07:07:51.815Z,9.90
2017-12-22T07:10:20.025Z,9.97
2017-12-22T07:12:48.150Z,9.53
2017-12-22T07:15:16.323Z,9.48
2017-12-22T07:17:45.290Z,9.30
2017-12-22T07:20:13.498Z,9.70
2017-12-22T07:22:41.664Z,9.80
2017-12-22T07:25:10.584Z,8.67
2017-12-22T07:27:38.734Z,8.53
2017-12-22T07:30:06.978Z,8.70
2017-12-22T07:32:35.130Z,8.90
2017-12-22T07:35:03.297Z,9.23
2017-12-22T07:37:31.506Z,10.13
2017-12-22T07:39:59.677Z,12.00
2017-12-22T07:42:27.845Z,11.27
2017-12-22T07:44:56.011Z,10.87
2017-12-22T07:47:24.171Z,11.30
2017-12-22T07:49:52.331Z,10.87
2017-12-22T07:52:20.514Z,12.67
2017-12-22T07:54:48.695Z,12.20
2017-12-22T07:57:16.857Z,13.60
2017-12-22T07:59:45.057Z,13.27
2017-12-22T08:02:13.222Z,10.70
2017-12-22T08:04:41.397Z,11.97
2017-12-22T08:07:09.610Z,10.23
2017-12-22T08:09:38.548Z,9.40
2017-12-22T08:12:06.753Z,10.07
2017-12-22T08:14:34.920Z,9.50
2017-12-22T08:17:03.080Z,8.80
2017-12-22T08:19:31.258Z,8.50
2017-12-22T08:21:59.420Z,7.10
2017-12-22T08:24:27.586Z,7.40
2017-12-22T08:26:55.802Z,7.73
2017-12-22T08:29:24.018Z,6.03
2017-12-22T08:31:52.184Z,7.10
2017-12-22T08:34:21.181Z,7.17
2017-12-22T08:36:50.133Z,6.83
2017-12-22T08:39:18.298Z,7.30
2017-12-22T08:41:46.555Z,7.13
2017-12-22T08:44:14.768Z,7.00
2017-12-22T10:08:40.676Z,7.13
2017-12-22T10:11:09.627Z,7.50
2017-12-22T10:13:38.240Z,9.07
2017-12-22T10:16:06.409Z,7.47
2017-12-22T10:18:34.618Z,8.30
2017-12-22T10:21:02.775Z,7.63
2017-12-22T10:23:31.745Z,7.20
2017-12-22T10:25:59.963Z,7.40
2017-12-22T10:28:28.124Z,7.93
2017-12-22T10:30:57.083Z,7.80
2017-12-22T10:33:25.261Z,8.73
2017-12-22T10:35:53.440Z,8.00
2017-12-22T10:38:21.696Z,8.37
2017-12-22T10:40:49.903Z,7.63
2017-12-22T10:43:18.082Z,7.40
2017-12-22T10:45:47.029Z,7.03
2017-12-22T10:48:15.263Z,8.20
2017-12-22T10:50:44.211Z,7.13
2017-12-22T10:53:12.382Z,7.90
2017-12-22T10:55:40.563Z,7.03
2017-12-22T10:58:08.727Z,7.30
2017-12-22T11:00:36.900Z,7.07
2017-12-22T11:03:05.080Z,7.20
2017-12-22T11:05:33.240Z,7.40
2017-12-22T11:08:01.412Z,7.70
2017-12-22T11:10:29.596Z,6.43
2017-12-22T11:12:57.765Z,7.67
2017-12-22T11:15:25.922Z,7.47
2017-12-22T11:17:54.082Z,6.67
2017-12-22T11:20:23.010Z,7.80
2017-12-22T11:22:51.223Z,7.57
2017-12-22T11:25:19.408Z,8.30
2017-12-22T11:27:48.354Z,9.60
2017-12-22T11:30:16.522Z,9.20
2017-12-22T11:32:44.694Z,9.07
2017-12-22T11:35:12.854Z,7.90
2017-12-22T11:37:41.041Z,9.03
2017-12-22T11:40:09.220Z,7.40
2017-12-22T11:42:37.382Z,7.43
2017-12-22T11:45:05.564Z,7.73
2017-12-22T11:47:33.723Z,7.77
2017-12-22T11:50:01.884Z,8.47
2017-12-22T11:52:30.823Z,7.00
2017-12-22T11:54:58.983Z,6.50
2017-12-22T11:57:27.143Z,6.83
2017-12-22T11:59:55.306Z,6.70
2017-12-22T12:02:23.471Z,6.33
2017-12-22T12:04:52.416Z,7.30
2017-12-22T12:07:20.578Z,7.10
2017-12-22T12:09:48.768Z,7.73
2017-12-22T12:12:16.933Z,8.30
2017-12-22T12:14:45.145Z,7.60
2017-12-22T12:17:13.319Z,7.53
2017-12-22T12:19:41.488Z,6.53
2017-12-22T12:22:09.658Z,7.40
2017-12-22T12:24:37.814Z,8.30
2017-12-22T12:27:05.976Z,7.50
2017-12-22T12:29:34.146Z,7.80
2017-12-22T12:32:02.322Z,8.20
2017-12-22T12:34:30.500Z,8.97
2017-12-22T12:36:58.711Z,9.00
2017-12-22T12:39:26.919Z,8.00
2017-12-22T12:41:55.087Z,8.30
2017-12-22T12:44:24.017Z,8.53
2017-12-22T12:46:52.182Z,10.03
2017-12-22T12:49:20.400Z,10.10
2017-12-22T12:51:48.566Z,9.73
2017-12-22T12:54:16.754Z,9.83
2017-12-22T12:56:44.935Z,10.23
2017-12-22T12:59:13.873Z,9.33
2017-12-22T13:01:42.052Z,9.10
2017-12-22T13:04:10.266Z,9.60
2017-12-22T13:06:38.471Z,9.17
2017-12-22T13:09:06.603Z,9.33
2017-12-22T13:11:34.778Z,10.17
2017-12-22T13:14:02.954Z,8.40
2017-12-22T13:16:31.138Z,8.07
2017-12-22T13:18:59.307Z,8.50
2017-12-22T13:21:27.488Z,7.57
2017-12-22T13:23:55.650Z,7.80
2017-12-22T13:26:23.858Z,7.87
2017-12-22T13:28:52.794Z,12.27
2017-12-22T13:31:20.972Z,21.47
2017-12-22T13:33:49.142Z,27.17
2017-12-22T13:36:17.358Z,29.80
2017-12-22T13:38:45.531Z,30.83
2017-12-22T13:41:13.742Z,28.97
2017-12-22T13:43:41.916Z,29.87
2017-12-22T13:46:10.086Z,30.17
2017-12-22T13:48:38.254Z,30.73
2017-12-22T13:51:07.182Z,30.30
2017-12-22T13:53:35.346Z,29.23
2017-12-22T13:56:03.930Z,29.27
2017-12-22T13:58:32.089Z,28.17
2017-12-22T14:01:00.257Z,28.93
2017-12-22T14:03:28.454Z,28.17
2017-12-22T14:05:56.609Z,28.03
2017-12-22T14:08:25.014Z,24.67
2017-12-22T14:10:53.166Z,23.30
2017-12-22T14:13:21.358Z,24.43
2017-12-22T14:15:49.532Z,23.23
2017-12-22T14:18:17.690Z,23.53
2017-12-22T14:20:45.888Z,26.80
2017-12-22T14:23:14.042Z,23.83
2017-12-22T14:25:42.246Z,23.63
2017-12-22T14:28:10.414Z,23.20
2017-12-22T14:30:38.589Z,23.53
2017-12-22T14:33:06.769Z,21.50
2017-12-22T14:35:35.714Z,22.60
2017-12-22T14:38:04.659Z,20.67
2017-12-22T14:40:32.894Z,21.53
2017-12-22T14:43:01.055Z,20.67
2017-12-22T14:45:29.983Z,20.80
2017-12-22T14:47:58.168Z,21.87
2017-12-22T14:50:26.341Z,20.53
2017-12-22T14:52:54.502Z,21.70
2017-12-22T14:55:22.678Z,20.70
2017-12-22T14:57:50.862Z,22.23
2017-12-22T15:00:19.031Z,21.93
2017-12-22T15:02:47.222Z,20.70
2017-12-22T15:05:15.398Z,23.77
2017-12-22T15:07:43.567Z,23.77
2017-12-22T15:10:11.747Z,26.40
2017-12-22T15:12:39.923Z,25.20
2017-12-22T15:15:08.103Z,25.07
2017-12-22T15:17:36.315Z,25.23
2017-12-22T15:20:04.497Z,25.43
2017-12-22T15:22:32.678Z,23.07
2017-12-22T15:25:00.850Z,25.13
2017-12-22T15:27:29.028Z,24.63
2017-12-22T15:29:57.220Z,27.40
2017-12-22T15:32:25.394Z,26.87
2017-12-22T15:34:53.568Z,24.23
2017-12-22T15:37:21.853Z,25.20
2017-12-22T15:39:50.020Z,26.00
2017-12-22T15:42:18.198Z,27.20
2017-12-22T15:44:46.401Z,27.90
2017-12-22T15:47:14.574Z,25.03
2017-12-22T15:49:42.776Z,24.37
2017-12-22T15:52:11.002Z,25.67
2017-12-22T15:54:39.174Z,46.20
2017-12-22T15:57:07.396Z,31.60
2017-12-22T15:59:35.582Z,29.03
2017-12-22T16:02:04.521Z,29.17
2017-12-22T16:04:32.709Z,27.70
2017-12-22T16:07:00.934Z,26.90
2017-12-22T16:09:29.897Z,27.90
2017-12-22T16:11:58.078Z,27.60
2017-12-22T16:14:26.269Z,27.27
2017-12-22T16:16:55.289Z,25.87
2017-12-22T16:19:23.544Z,26.33
2017-12-22T16:21:52.523Z,69.60
2017-12-22T16:24:20.757Z,40.73
2017-12-22T16:26:48.975Z,31.20
2017-12-22T16:29:17.499Z,23.63
2017-12-22T16:31:45.725Z,20.57
2017-12-22T16:34:13.921Z,19.37
2017-12-22T16:36:42.882Z,17.67
2017-12-22T16:39:11.081Z,16.37
2017-12-22T16:41:40.082Z,19.57
2017-12-22T16:44:09.025Z,25.97
2017-12-22T16:46:37.218Z,18.63
2017-12-22T16:49:05.395Z,15.13
2017-12-22T16:51:33.592Z,17.30
2017-12-22T16:54:02.559Z,17.37
2017-12-22T16:56:30.771Z,15.67
2017-12-22T16:58:59.718Z,18.60
2017-12-22T17:01:27.905Z,22.37
2017-12-22T17:03:56.126Z,21.60
2017-12-22T17:06:24.318Z,18.53
2017-12-22T17:08:52.488Z,18.20
2017-12-22T17:11:20.670Z,18.43
2017-12-22T17:13:48.858Z,28.37
2017-12-22T17:16:17.054Z,36.20
2017-12-22T17:18:45.234Z,43.73
2017-12-22T17:21:13.419Z,30.37
2017-12-22T17:23:41.631Z,19.80
2017-12-22T17:26:09.850Z,23.13
2017-12-22T17:28:38.024Z,19.37
2017-12-22T17:31:06.214Z,16.23
2017-12-22T17:33:34.407Z,16.83
2017-12-22T17:36:03.355Z,17.13
2017-12-22T17:38:31.552Z,18.57
2017-12-22T17:40:59.733Z,19.00
2017-12-22T17:43:27.910Z,20.57
2017-12-22T17:45:56.092Z,25.00
2017-12-22T17:48:25.048Z,29.03
2017-12-22T17:50:53.250Z,23.47
2017-12-22T17:53:21.485Z,25.10
2017-12-22T17:55:49.682Z,23.30
2017-12-22T17:58:17.888Z,24.80
2017-12-22T18:00:46.861Z,25.20
2017-12-22T18:03:15.074Z,24.97
2017-12-22T18:05:43.270Z,24.33
2017-12-22T18:08:11.480Z,25.77
2017-12-22T18:10:39.680Z,30.70
2017-12-22T18:13:08.679Z,45.07
2017-12-22T18:15:37.621Z,63.10
2017-12-22T18:18:05.813Z,46.10
2017-12-22T18:20:33.984Z,42.00
2017-12-22T18:23:02.180Z,53.10
2017-12-22T18:25:30.380Z,42.03
2017-12-22T18:27:59.457Z,35.97
2017-12-22T18:30:27.703Z,45.37
2017-12-22T18:32:55.918Z,41.43
2017-12-22T18:35:24.901Z,42.00
2017-12-22T18:37:53.083Z,29.20
2017-12-22T18:40:22.017Z,24.30
2017-12-22T18:42:50.240Z,26.70
2017-12-22T18:45:18.421Z,26.87
2017-12-22T18:47:47.377Z,21.20
2017-12-22T18:50:15.559Z,18.47
2017-12-22T18:52:43.762Z,19.50
2017-12-22T18:55:11.959Z,19.53
2017-12-22T18:57:40.152Z,19.27
2017-12-22T19:00:08.402Z,18.60
2017-12-22T19:02:37.383Z,17.93
2017-12-22T19:05:05.562Z,19.63
2017-12-22T19:07:34.513Z,18.67
2017-12-22T19:10:02.724Z,18.60
2017-12-22T19:12:30.910Z,20.43
2017-12-22T19:14:59.847Z,18.90
2017-12-22T19:17:28.034Z,15.57
2017-12-22T19:19:56.222Z,16.60
2017-12-22T19:22:24.416Z,15.27
2017-12-22T19:24:52.602Z,16.63
2017-12-22T19:27:21.543Z,16.10
2017-12-22T19:29:49.733Z,16.30
2017-12-22T19:32:17.911Z,17.33
2017-12-22T19:34:46.100Z,15.77
2017-12-22T19:37:14.327Z,18.33
2017-12-22T19:39:42.539Z,16.80
2017-12-22T19:42:10.700Z,16.17
2017-12-22T19:44:38.899Z,14.20
2017-12-22T19:47:07.092Z,14.17
2017-12-22T19:49:36.042Z,13.73
2017-12-22T19:52:04.221Z,13.87
2017-12-22T19:54:32.412Z,14.00
2017-12-22T19:57:00.625Z,15.60
2017-12-22T19:59:28.799Z,13.43
2017-12-22T20:01:56.980Z,15.60
2017-12-22T20:04:25.153Z,15.20
2017-12-22T20:06:53.319Z,17.47
2017-12-22T20:09:21.492Z,17.50
2017-12-22T20:11:50.431Z,17.23
2017-12-22T20:14:18.604Z,19.53
2017-12-22T20:16:46.774Z,19.57
2017-12-22T20:19:14.945Z,18.10
2017-12-22T20:21:43.164Z,16.53
2017-12-22T20:24:11.332Z,15.57
2017-12-22T20:26:39.511Z,22.60
2017-12-22T20:29:08.500Z,33.77
2017-12-22T20:31:36.680Z,44.73
2017-12-22T20:34:05.658Z,26.03
